createdAt,value
2023-02-11T00:00:52.419Z,10.3
2023-02-11T00:01:54.695Z,10.3
2023-02-11T00:02:56.899Z,10.3
2023-02-11T00:03:58.982Z,10.3
2023-02-11T00:05:00.824Z,10.3
2023-02-11T00:06:02.680Z,10.3
2023-02-11T00:07:04.540Z,10.3
2023-02-11T00:08:06.356Z,10.3
2023-02-11T00:09:08.951Z,10.3
2023-02-11T00:10:10.704Z,10.2
2023-02-11T00:11:12.533Z,10.3
2023-02-11T00:12:14.403Z,10.3
2023-02-11T00:13:16.343Z,10.3
2023-02-11T00:14:18.431Z,10.3
2023-02-11T00:15:20.263Z,10.3
2023-02-11T00:16:22.346Z,10.2
2023-02-11T00:17:24.463Z,10.2
2023-02-11T00:18:26.313Z,10.2
2023-02-11T00:19:28.271Z,10.2
2023-02-11T00:20:30.211Z,10.2
2023-02-11T00:21:32.082Z,10.2
2023-02-11T00:22:33.921Z,10.2
2023-02-11T00:23:35.759Z,10.2
2023-02-11T00:24:37.725Z,10.3
2023-02-11T00:25:39.544Z,10.2
2023-02-11T00:26:41.481Z,10.2
2023-02-11T00:27:43.345Z,10.2
2023-02-11T00:28:45.337Z,10.2
2023-02-11T00:29:47.303Z,10.2
2023-02-11T00:30:49.400Z,10.2
2023-02-11T00:31:51.732Z,10.2
2023-02-11T00:32:54.156Z,10.2
2023-02-11T00:33:56.088Z,10.2
2023-02-11T00:34:57.876Z,10.1
2023-02-11T00:35:59.818Z,10.2
2023-02-11T00:37:01.761Z,10.2
2023-02-11T00:38:04.422Z,10.2
2023-02-11T00:39:09.190Z,10.2
2023-02-11T00:40:11.000Z,10.2
2023-02-11T00:41:12.856Z,10.2
2023-02-11T00:42:14.679Z,10.2
2023-02-11T00:43:16.545Z,10.2
2023-02-11T00:44:18.388Z,10.2
2023-02-11T00:45:20.286Z,10.2
2023-02-11T00:46:22.347Z,10.2
2023-02-11T00:47:24.566Z,10.2
2023-02-11T00:48:29.075Z,10.2
2023-02-11T00:49:30.921Z,10.2
2023-02-11T00:50:32.772Z,10.2
2023-02-11T00:51:34.705Z,10.2
2023-02-11T00:52:36.541Z,10.2
2023-02-11T00:53:38.435Z,10.2
2023-02-11T00:54:40.262Z,10.2
2023-02-11T00:55:42.242Z,10.2
2023-02-11T00:56:44.576Z,10.2
2023-02-11T00:57:46.430Z,10.2
2023-02-11T00:58:48.393Z,10.2
2023-02-11T00:59:50.216Z,10.3
2023-02-11T01:00:52.211Z,10.3
2023-02-11T01:01:54.147Z,10.3
2023-02-11T01:02:55.967Z,10.3
2023-02-11T01:03:57.848Z,10.3
2023-02-11T01:04:59.941Z,10.3
2023-02-11T01:06:01.936Z,10.3
2023-02-11T01:07:03.806Z,10.3
2023-02-11T01:08:05.652Z,10.3
2023-02-11T01:09:07.515Z,10.3
2023-02-11T01:10:09.361Z,10.3
2023-02-11T01:11:11.230Z,10.3
2023-02-11T01:12:13.064Z,10.3
2023-02-11T01:13:14.908Z,10.3
2023-02-11T01:14:16.762Z,10.2
2023-02-11T01:15:18.641Z,10.2
2023-02-11T01:16:20.656Z,10.2
2023-02-11T01:17:22.835Z,10.2
2023-02-11T01:18:24.671Z,10.2
2023-02-11T01:19:26.820Z,10.2
2023-02-11T01:20:28.688Z,10.2
2023-02-11T01:21:30.529Z,10.2
2023-02-11T01:22:32.486Z,10.2
2023-02-11T01:23:34.421Z,10.2
2023-02-11T01:24:36.151Z,10.2
2023-02-11T01:25:38.249Z,10.2
2023-02-11T01:26:40.077Z,10.2
2023-02-11T01:27:41.833Z,10.2
2023-02-11T01:28:43.780Z,10.2
2023-02-11T01:29:45.539Z,10.2
2023-02-11T01:30:47.530Z,10.2
2023-02-11T01:31:49.711Z,10.2
2023-02-11T01:32:51.815Z,10.2
2023-02-11T01:33:53.645Z,10.2
2023-02-11T01:34:55.510Z,10.2
2023-02-11T01:35:57.447Z,10.2
2023-02-11T01:36:59.318Z,10.2
2023-02-11T01:38:01.367Z,10.2
2023-02-11T01:39:03.209Z,10.2
2023-02-11T01:40:05.059Z,10.1
2023-02-11T01:41:06.908Z,10.1
2023-02-11T01:42:08.868Z,10.1
2023-02-11T01:43:10.812Z,10.2
2023-02-11T01:44:12.669Z,10.2
2023-02-11T01:45:14.503Z,10.1
2023-02-11T01:46:16.507Z,10.1
2023-02-11T01:47:18.519Z,10.1
2023-02-11T01:48:20.371Z,10.1
2023-02-11T01:49:22.385Z,10.1
2023-02-11T01:50:24.377Z,10.1
2023-02-11T01:51:26.341Z,10.1
2023-02-11T01:52:28.186Z,10.1
2023-02-11T01:53:30.046Z,10.1
2023-02-11T01:54:31.871Z,10.1
2023-02-11T01:55:33.709Z,10.1
2023-02-11T01:56:35.571Z,10.1
2023-02-11T01:57:37.392Z,10.1
2023-02-11T01:58:39.167Z,10.1
2023-02-11T01:59:41.033Z,10.1
2023-02-11T02:00:42.886Z,10.1
2023-02-11T02:01:44.786Z,10.1
2023-02-11T02:02:46.806Z,10.1
2023-02-11T02:03:48.682Z,10.1
2023-02-11T02:04:50.885Z,10.2
2023-02-11T02:05:53.166Z,10.2
2023-02-11T02:06:55.019Z,10.2
2023-02-11T02:07:56.854Z,10.2
2023-02-11T02:08:58.692Z,10.2
2023-02-11T02:10:00.581Z,10.2
2023-02-11T02:11:02.413Z,10.2
2023-02-11T02:12:04.248Z,10.2
2023-02-11T02:13:06.106Z,10.2
2023-02-11T02:14:07.965Z,10.2
2023-02-11T02:15:09.770Z,10.2
2023-02-11T02:16:11.786Z,10.2
2023-02-11T02:17:13.911Z,10.2
2023-02-11T02:18:15.829Z,10.2
2023-02-11T02:19:17.599Z,10.2
2023-02-11T02:20:19.356Z,10.1
2023-02-11T02:21:21.104Z,10.1
2023-02-11T02:22:22.960Z,10.1
2023-02-11T02:23:24.935Z,10.1
2023-02-11T02:24:27.069Z,10.1
2023-02-11T02:25:28.888Z,10.1
2023-02-11T02:26:30.734Z,10.1
2023-02-11T02:27:32.736Z,10.1
2023-02-11T02:28:34.794Z,10.1
2023-02-11T02:29:36.722Z,10.1
2023-02-11T02:30:38.443Z,10.1
2023-02-11T02:31:40.462Z,10
2023-02-11T02:32:42.475Z,10.1
2023-02-11T02:33:47.233Z,10.1
2023-02-11T02:34:49.059Z,10.1
2023-02-11T02:35:51.540Z,10.1
2023-02-11T02:36:53.663Z,10.1
2023-02-11T02:37:55.515Z,10.1
2023-02-11T02:38:57.466Z,10.2
2023-02-11T02:39:59.282Z,10.2
2023-02-11T02:41:01.205Z,10.2
2023-02-11T02:42:03.316Z,10.3
2023-02-11T02:43:05.130Z,10.3
2023-02-11T02:44:07.028Z,10.3
2023-02-11T02:45:08.831Z,10.3
2023-02-11T02:46:10.744Z,10.3
2023-02-11T02:47:12.881Z,10.3
2023-02-11T02:48:14.838Z,10.3
2023-02-11T02:49:16.829Z,10.3
2023-02-11T02:50:18.626Z,10.3
2023-02-11T02:51:20.497Z,10.3
2023-02-11T02:52:22.337Z,10.3
2023-02-11T02:53:24.266Z,10.3
2023-02-11T02:54:26.244Z,10.2
2023-02-11T02:55:28.099Z,10.2
2023-02-11T02:56:29.943Z,10.2
2023-02-11T02:57:31.901Z,10.2
2023-02-11T02:58:33.843Z,10.2
2023-02-11T02:59:35.699Z,10.2
2023-02-11T03:00:37.695Z,10.2
2023-02-11T03:01:39.560Z,10.2
2023-02-11T03:02:41.339Z,10.2
2023-02-11T03:03:43.749Z,10.2
2023-02-11T03:04:45.988Z,10.2
2023-02-11T03:05:48.441Z,10.2
2023-02-11T03:06:51.199Z,10.1
2023-02-11T03:07:52.955Z,10.1
2023-02-11T03:08:54.818Z,10.2
2023-02-11T03:09:56.751Z,10.2
2023-02-11T03:10:58.615Z,10.1
2023-02-11T03:12:00.448Z,10.1
2023-02-11T03:13:04.908Z,10.1
2023-02-11T03:14:06.612Z,10.1
2023-02-11T03:15:08.431Z,10.1
2023-02-11T03:16:10.494Z,10.1
2023-02-11T03:17:12.657Z,10.1
2023-02-11T03:18:14.536Z,10.1
2023-02-11T03:19:16.385Z,10.1
2023-02-11T03:20:18.361Z,10.1
2023-02-11T03:21:20.281Z,10.1
2023-02-11T03:22:22.097Z,10.1
2023-02-11T03:23:24.086Z,10.1
2023-02-11T03:24:26.050Z,10.1
2023-02-11T03:25:27.792Z,10.1
2023-02-11T03:26:29.538Z,10.1
2023-02-11T03:27:31.378Z,10.1
2023-02-11T03:28:33.398Z,10.1
2023-02-11T03:29:35.595Z,10.1
2023-02-11T03:30:37.434Z,10.1
2023-02-11T03:31:39.719Z,10.1
2023-02-11T03:32:42.067Z,10.1
2023-02-11T03:33:44.019Z,10.1
2023-02-11T03:34:45.870Z,10
2023-02-11T03:35:48.231Z,10
2023-02-11T03:36:51.027Z,10.1
2023-02-11T03:37:52.958Z,10.1
2023-02-11T03:38:54.917Z,10.1
2023-02-11T03:39:57.383Z,10.1
2023-02-11T03:40:59.223Z,10
2023-02-11T03:42:01.052Z,10
2023-02-11T03:43:02.930Z,10
2023-02-11T03:44:04.879Z,10
2023-02-11T03:45:06.736Z,10
2023-02-11T03:46:08.733Z,10
2023-02-11T03:47:10.750Z,10
2023-02-11T03:48:12.689Z,10
2023-02-11T03:49:14.631Z,10
2023-02-11T03:50:16.402Z,10
2023-02-11T03:51:18.258Z,10
2023-02-11T03:52:20.087Z,10
2023-02-11T03:53:21.940Z,10
2023-02-11T03:54:23.787Z,10
2023-02-11T03:55:25.642Z,10
2023-02-11T03:56:27.596Z,10
2023-02-11T03:57:29.533Z,10
2023-02-11T03:58:31.491Z,10
2023-02-11T03:59:33.334Z,10
2023-02-11T04:00:35.189Z,10
2023-02-11T04:01:37.038Z,10
2023-02-11T04:02:38.990Z,10
2023-02-11T04:03:40.849Z,10
2023-02-11T04:04:42.801Z,10
2023-02-11T04:05:44.746Z,10
2023-02-11T04:06:46.739Z,10
2023-02-11T04:07:48.648Z,9.9
2023-02-11T04:08:50.410Z,10
2023-02-11T04:09:52.249Z,9.9
2023-02-11T04:10:54.111Z,9.9
2023-02-11T04:11:55.950Z,9.9
2023-02-11T04:12:58.009Z,9.9
2023-02-11T04:13:59.826Z,9.9
2023-02-11T04:15:01.703Z,9.9
2023-02-11T04:16:03.680Z,10
2023-02-11T04:17:05.719Z,10
2023-02-11T04:18:07.673Z,10
2023-02-11T04:19:09.518Z,10
2023-02-11T04:20:11.263Z,10
2023-02-11T04:21:13.119Z,10
2023-02-11T04:22:15.019Z,10
2023-02-11T04:23:17.011Z,10
2023-02-11T04:24:18.970Z,10
2023-02-11T04:25:20.813Z,10.1
2023-02-11T04:26:22.517Z,10.1
2023-02-11T04:27:24.293Z,10.1
2023-02-11T04:28:29.306Z,10.1
2023-02-11T04:29:31.397Z,10.1
2023-02-11T04:30:33.251Z,10.1
2023-02-11T04:31:35.147Z,10.1
2023-02-11T04:32:37.073Z,10
2023-02-11T04:33:38.896Z,10
2023-02-11T04:34:40.751Z,10
2023-02-11T04:35:42.500Z,10
2023-02-11T04:36:44.339Z,10
2023-02-11T04:37:46.221Z,10
2023-02-11T04:38:48.041Z,10
2023-02-11T04:39:49.889Z,10
2023-02-11T04:40:51.768Z,10
2023-02-11T04:41:53.572Z,10
2023-02-11T04:42:58.300Z,10
2023-02-11T04:44:00.267Z,9.9
2023-02-11T04:45:02.122Z,9.9
2023-02-11T04:46:04.135Z,10
2023-02-11T04:47:06.236Z,9.9
2023-02-11T04:48:08.036Z,9.9
2023-02-11T04:49:09.913Z,9.9
2023-02-11T04:50:11.672Z,9.9
2023-02-11T04:51:13.629Z,9.9
2023-02-11T04:52:15.467Z,9.9
2023-02-11T04:53:17.373Z,9.9
2023-02-11T04:54:19.267Z,9.9
2023-02-11T04:55:21.033Z,9.9
2023-02-11T04:56:22.969Z,9.9
2023-02-11T04:57:24.836Z,9.9
2023-02-11T04:58:26.837Z,9.9
2023-02-11T04:59:28.654Z,9.9
2023-02-11T05:00:30.419Z,9.9
2023-02-11T05:01:32.374Z,9.9
2023-02-11T05:02:34.489Z,9.9
2023-02-11T05:03:36.336Z,9.9
2023-02-11T05:04:38.198Z,9.9
2023-02-11T05:05:40.013Z,9.8
2023-02-11T05:06:41.898Z,9.9
2023-02-11T05:07:43.639Z,9.9
2023-02-11T05:08:48.400Z,9.9
2023-02-11T05:09:50.207Z,9.9
2023-02-11T05:10:52.054Z,9.9
2023-02-11T05:11:53.899Z,9.9
2023-02-11T05:12:56.363Z,9.9
2023-02-11T05:13:58.316Z,9.9
2023-02-11T05:15:00.178Z,9.8
2023-02-11T05:16:02.033Z,9.9
2023-02-11T05:17:04.146Z,9.8
2023-02-11T05:18:06.117Z,9.9
2023-02-11T05:19:07.864Z,9.8
2023-02-11T05:20:09.725Z,9.8
2023-02-11T05:21:11.480Z,9.8
2023-02-11T05:22:13.340Z,9.8
2023-02-11T05:23:15.280Z,9.8
2023-02-11T05:24:17.658Z,9.8
2023-02-11T05:25:19.489Z,9.9
2023-02-11T05:26:21.373Z,9.8
2023-02-11T05:27:23.303Z,9.8
2023-02-11T05:28:25.778Z,9.8
2023-02-11T05:29:27.802Z,9.9
2023-02-11T05:30:29.716Z,9.8
2023-02-11T05:31:31.722Z,9.8
2023-02-11T05:32:33.645Z,9.8
2023-02-11T05:33:35.632Z,9.8
2023-02-11T05:34:37.333Z,9.8
2023-02-11T05:35:39.219Z,9.8
2023-02-11T05:36:41.073Z,9.8
2023-02-11T05:37:43.011Z,9.8
2023-02-11T05:38:44.865Z,9.8
2023-02-11T05:39:46.847Z,9.8
2023-02-11T05:40:48.774Z,9.8
2023-02-11T05:41:50.689Z,9.8
2023-02-11T05:42:52.578Z,9.8
2023-02-11T05:43:54.431Z,9.8
2023-02-11T05:44:56.269Z,9.8
2023-02-11T05:45:58.038Z,9.8
2023-02-11T05:46:59.868Z,9.8
2023-02-11T05:48:01.832Z,9.8
2023-02-11T05:49:03.681Z,9.8
2023-02-11T05:50:05.539Z,9.8
2023-02-11T05:51:07.365Z,9.8
2023-02-11T05:52:09.236Z,9.8
2023-02-11T05:53:11.178Z,9.7
2023-02-11T05:54:13.346Z,9.7
2023-02-11T05:55:15.214Z,9.7
2023-02-11T05:56:17.151Z,9.8
2023-02-11T05:57:18.994Z,9.7
2023-02-11T05:58:20.733Z,9.8
2023-02-11T05:59:22.588Z,9.7
2023-02-11T06:00:24.337Z,9.7
2023-02-11T06:01:26.284Z,9.7
2023-02-11T06:02:28.322Z,9.7
2023-02-11T06:03:30.435Z,9.7
2023-02-11T06:04:32.447Z,9.7
2023-02-11T06:05:34.313Z,9.8
2023-02-11T06:06:36.154Z,9.7
2023-02-11T06:07:38.095Z,9.8
2023-02-11T06:08:39.927Z,9.8
2023-02-11T06:09:41.901Z,9.8
2023-02-11T06:10:43.798Z,9.8
2023-02-11T06:11:45.578Z,9.7
2023-02-11T06:12:47.451Z,9.7
2023-02-11T06:13:49.273Z,9.7
2023-02-11T06:14:51.254Z,9.7
2023-02-11T06:15:53.787Z,9.6
2023-02-11T06:16:55.769Z,9.6
2023-02-11T06:17:57.517Z,9.6
2023-02-11T06:18:59.478Z,9.6
2023-02-11T06:20:01.420Z,9.5
2023-02-11T06:21:03.283Z,9.5
2023-02-11T06:22:05.108Z,9.5
2023-02-11T06:23:06.886Z,9.5
2023-02-11T06:24:08.733Z,9.4
2023-02-11T06:25:10.585Z,9.4
2023-02-11T06:26:12.623Z,9.4
2023-02-11T06:27:14.483Z,9.4
2023-02-11T06:28:16.484Z,9.5
2023-02-11T06:29:18.449Z,9.4
2023-02-11T06:30:20.339Z,9.3
2023-02-11T06:31:22.500Z,9.3
2023-02-11T06:32:45.052Z,9.3
2023-02-11T06:33:48.304Z,9.3
2023-02-11T06:34:50.133Z,9.3
2023-02-11T06:35:55.224Z,9.3
2023-02-11T06:36:56.839Z,9.3
2023-02-11T06:37:58.582Z,9.3
2023-02-11T06:39:00.433Z,9.3
2023-02-11T06:40:02.307Z,9.3
2023-02-11T06:41:04.329Z,9.2
2023-02-11T06:42:08.259Z,9.3
2023-02-11T06:43:10.084Z,9.2
2023-02-11T06:44:11.947Z,9.2
2023-02-11T06:45:13.775Z,9.2
2023-02-11T06:46:15.778Z,9.3
2023-02-11T06:47:17.664Z,9.3
2023-02-11T06:48:19.635Z,9.2
2023-02-11T06:49:21.490Z,9.2
2023-02-11T06:50:23.342Z,9.2
2023-02-11T06:51:25.081Z,9.3
2023-02-11T06:52:27.041Z,9.3
2023-02-11T06:53:28.843Z,9.3
2023-02-11T06:54:30.741Z,9.3
2023-02-11T06:55:32.490Z,9.3
2023-02-11T06:56:34.441Z,9.3
2023-02-11T06:57:36.314Z,9.3
2023-02-11T06:58:38.127Z,9.4
2023-02-11T06:59:39.992Z,9.4
2023-02-11T07:00:41.850Z,9.4
2023-02-11T07:01:43.954Z,9.3
2023-02-11T07:02:46.147Z,9.4
2023-02-11T07:03:47.973Z,9.3
2023-02-11T07:04:49.861Z,9.3
2023-02-11T07:05:52.569Z,9.3
2023-02-11T07:06:54.865Z,9.3
2023-02-11T07:07:56.700Z,9.3
2023-02-11T07:08:58.507Z,9.2
2023-02-11T07:10:00.336Z,9.3
2023-02-11T07:11:02.183Z,9.2
2023-02-11T07:12:04.138Z,9.2
2023-02-11T07:13:05.917Z,9.2
2023-02-11T07:14:07.736Z,9.2
2023-02-11T07:15:09.480Z,9.2
2023-02-11T07:16:11.508Z,9.2
2023-02-11T07:17:13.594Z,9.2
2023-02-11T07:18:15.439Z,9.2
2023-02-11T07:19:17.263Z,9.3
2023-02-11T07:20:19.143Z,9.3
2023-02-11T07:21:20.991Z,9.2
2023-02-11T07:22:22.847Z,9.2
2023-02-11T07:23:24.797Z,9.3
2023-02-11T07:24:26.646Z,9.3
2023-02-11T07:25:28.499Z,9.3
2023-02-11T07:26:30.348Z,9.3
2023-02-11T07:27:32.158Z,9.2
2023-02-11T07:28:37.313Z,9.3
2023-02-11T07:29:39.277Z,9.3
2023-02-11T07:30:41.252Z,9.3
2023-02-11T07:31:43.471Z,9.3
2023-02-11T07:32:45.641Z,9.3
2023-02-11T07:33:47.599Z,9.3
2023-02-11T07:34:49.641Z,9.3
2023-02-11T07:35:52.411Z,9.4
2023-02-11T07:36:54.892Z,9.3
2023-02-11T07:37:56.943Z,9.3
2023-02-11T07:38:58.784Z,9.4
2023-02-11T07:40:00.630Z,9.4
2023-02-11T07:41:02.559Z,9.4
2023-02-11T07:42:04.546Z,9.4
2023-02-11T07:43:06.393Z,9.4
2023-02-11T07:44:08.335Z,9.4
2023-02-11T07:45:10.199Z,9.4
2023-02-11T07:46:12.051Z,9.4
2023-02-11T07:47:13.897Z,9.4
2023-02-11T07:48:15.742Z,9.5
2023-02-11T07:49:17.574Z,9.3
2023-02-11T07:50:19.449Z,9.4
2023-02-11T07:51:21.217Z,9.3
2023-02-11T07:52:22.934Z,9.4
2023-02-11T07:53:24.646Z,9.3
2023-02-11T07:54:26.441Z,9.4
2023-02-11T07:55:28.287Z,9.3
2023-02-11T07:56:30.205Z,9.3
2023-02-11T07:57:32.064Z,9.2
2023-02-11T07:58:33.936Z,9.3
2023-02-11T07:59:35.820Z,9.3
2023-02-11T08:00:37.769Z,9.3
2023-02-11T08:01:39.590Z,9.3
2023-02-11T08:02:41.454Z,9.2
2023-02-11T08:03:43.219Z,9.3
2023-02-11T08:04:45.036Z,9.3
2023-02-11T08:05:46.906Z,9.3
2023-02-11T08:06:48.742Z,9.3
2023-02-11T08:07:50.696Z,9.3
2023-02-11T08:08:52.568Z,9.3
2023-02-11T08:09:54.397Z,9.3
2023-02-11T08:10:56.133Z,9.4
2023-02-11T08:11:57.990Z,9.4
2023-02-11T08:12:59.939Z,9.4
2023-02-11T08:14:01.790Z,9.4
2023-02-11T08:15:03.762Z,9.4
2023-02-11T08:16:05.741Z,9.5
2023-02-11T08:17:07.815Z,9.5
2023-02-11T08:18:09.605Z,9.5
2023-02-11T08:19:11.442Z,9.6
2023-02-11T08:20:13.290Z,9.5
2023-02-11T08:21:15.143Z,9.5
2023-02-11T08:22:17.036Z,9.5
2023-02-11T08:23:18.851Z,9.5
2023-02-11T08:24:20.664Z,9.5
2023-02-11T08:25:22.549Z,9.5
2023-02-11T08:26:24.407Z,9.5
2023-02-11T08:27:26.253Z,9.7
2023-02-11T08:28:30.888Z,9.5
2023-02-11T08:29:32.921Z,9.6
2023-02-11T08:30:37.674Z,9.5
2023-02-11T08:31:40.304Z,9.5
2023-02-11T08:32:42.835Z,9.6
2023-02-11T08:33:44.832Z,9.5
2023-02-11T08:34:46.676Z,9.6
2023-02-11T08:35:48.410Z,9.6
2023-02-11T08:36:50.374Z,9.6
2023-02-11T08:37:52.217Z,9.6
2023-02-11T08:39:12.380Z,9.6
2023-02-11T08:40:22.545Z,9.6
2023-02-11T08:41:24.403Z,9.6
2023-02-11T08:42:26.146Z,9.6
2023-02-11T08:43:27.935Z,9.6
2023-02-11T08:44:29.757Z,9.6
2023-02-11T08:45:31.775Z,9.6
2023-02-11T08:46:34.022Z,9.6
2023-02-11T08:47:36.208Z,9.6
2023-02-11T08:48:38.056Z,9.6
2023-02-11T08:49:39.920Z,9.6
2023-02-11T08:50:41.765Z,9.6
2023-02-11T08:51:43.619Z,9.6
2023-02-11T08:52:45.541Z,9.6
2023-02-11T08:53:47.321Z,9.6
2023-02-11T08:54:49.155Z,9.6
2023-02-11T08:55:51.620Z,9.6
2023-02-11T08:56:54.302Z,9.6
2023-02-11T08:57:56.159Z,9.6
2023-02-11T08:58:58.012Z,9.6
2023-02-11T08:59:59.848Z,9.6
2023-02-11T09:01:01.833Z,9.6
2023-02-11T09:02:04.002Z,9.6
2023-02-11T09:03:06.015Z,9.7
2023-02-11T09:04:07.875Z,9.7
2023-02-11T09:05:09.825Z,9.6
2023-02-11T09:06:11.614Z,9.7
2023-02-11T09:07:13.619Z,9.7
2023-02-11T09:08:15.460Z,9.7
2023-02-11T09:09:17.632Z,9.7
2023-02-11T09:10:19.442Z,9.7
2023-02-11T09:11:21.328Z,9.7
2023-02-11T09:12:23.164Z,9.7
2023-02-11T09:13:25.131Z,9.7
2023-02-11T09:14:26.882Z,9.7
2023-02-11T09:15:28.611Z,9.7
2023-02-11T09:16:30.546Z,9.7
2023-02-11T09:17:32.656Z,9.7
2023-02-11T09:18:34.549Z,9.7
2023-02-11T09:19:36.542Z,9.7
2023-02-11T09:20:38.489Z,9.7
2023-02-11T09:21:40.347Z,9.7
2023-02-11T09:22:42.191Z,9.7
2023-02-11T09:23:44.037Z,9.7
2023-02-11T09:24:46.025Z,9.7
2023-02-11T09:25:47.846Z,9.7
2023-02-11T09:26:49.998Z,9.7
2023-02-11T09:27:51.852Z,9.7
2023-02-11T09:28:53.688Z,9.7
2023-02-11T09:29:55.663Z,9.7
2023-02-11T09:31:00.360Z,9.7
2023-02-11T09:32:02.814Z,9.7
2023-02-11T09:33:05.326Z,9.7
2023-02-11T09:34:07.372Z,9.7
2023-02-11T09:35:09.298Z,9.7
2023-02-11T09:36:11.147Z,9.7
2023-02-11T09:37:13.008Z,9.7
2023-02-11T09:38:14.848Z,9.7
2023-02-11T09:39:16.693Z,9.7
2023-02-11T09:40:18.616Z,9.8
2023-02-11T09:41:20.507Z,9.7
2023-02-11T09:42:22.369Z,9.8
2023-02-11T09:43:24.198Z,9.8
2023-02-11T09:44:26.073Z,9.8
2023-02-11T09:45:28.013Z,9.8
2023-02-11T09:46:30.097Z,9.8
2023-02-11T09:47:32.233Z,9.8
2023-02-11T09:48:34.102Z,9.8
2023-02-11T09:49:35.915Z,9.8
2023-02-11T09:50:37.870Z,9.8
2023-02-11T09:51:39.832Z,9.8
2023-02-11T09:52:44.319Z,9.8
2023-02-11T09:53:46.184Z,9.8
2023-02-11T09:54:48.017Z,9.8
2023-02-11T09:55:49.861Z,9.8
2023-02-11T09:56:51.739Z,9.8
2023-02-11T09:57:53.586Z,9.8
2023-02-11T09:58:55.444Z,9.8
2023-02-11T09:59:57.394Z,9.8
2023-02-11T10:00:59.580Z,9.8
2023-02-11T10:02:01.512Z,9.8
2023-02-11T10:03:03.358Z,9.8
2023-02-11T10:04:05.445Z,9.8
2023-02-11T10:05:07.471Z,9.8
2023-02-11T10:06:09.310Z,9.8
2023-02-11T10:07:11.262Z,9.8
2023-02-11T10:08:17.070Z,9.8
2023-02-11T10:09:19.064Z,9.9
2023-02-11T10:10:21.142Z,9.8
2023-02-11T10:11:32.484Z,9.8
2023-02-11T10:12:34.438Z,9.8
2023-02-11T10:13:36.293Z,9.9
2023-02-11T10:14:38.148Z,9.8
2023-02-11T10:15:40.026Z,9.8
2023-02-11T10:16:44.562Z,9.8
2023-02-11T10:17:46.505Z,9.8
2023-02-11T10:18:48.398Z,9.8
2023-02-11T10:19:50.286Z,9.8
2023-02-11T10:20:52.684Z,9.8
2023-02-11T10:21:55.184Z,9.8
2023-02-11T10:22:57.046Z,9.8
2023-02-11T10:23:58.896Z,9.8
2023-02-11T10:25:00.626Z,9.9
2023-02-11T10:26:02.589Z,9.8
2023-02-11T10:27:04.442Z,9.9
2023-02-11T10:28:06.402Z,9.8
2023-02-11T10:29:08.114Z,9.9
2023-02-11T10:30:09.889Z,9.8
2023-02-11T10:31:12.008Z,9.8
2023-02-11T10:32:14.205Z,9.8
2023-02-11T10:33:16.159Z,9.9
2023-02-11T10:34:18.002Z,9.9
2023-02-11T10:35:19.876Z,9.8
2023-02-11T10:36:21.694Z,9.9
2023-02-11T10:37:23.558Z,9.8
2023-02-11T10:38:25.503Z,9.9
2023-02-11T10:39:27.360Z,9.9
2023-02-11T10:40:29.200Z,9.9
2023-02-11T10:41:31.062Z,9.9
2023-02-11T10:42:32.779Z,9.9
2023-02-11T10:43:34.758Z,9.9
2023-02-11T10:44:36.605Z,9.9
2023-02-11T10:45:38.449Z,9.9
2023-02-11T10:46:40.613Z,9.9
2023-02-11T10:47:42.677Z,10
2023-02-11T10:48:44.630Z,9.6
2023-02-11T10:49:46.474Z,9.8
2023-02-11T10:50:48.840Z,9.9
2023-02-11T10:51:51.640Z,9.9
2023-02-11T10:52:53.473Z,9.9
2023-02-11T10:53:55.175Z,9.9
2023-02-11T10:54:57.162Z,9.9
2023-02-11T10:55:59.008Z,9.9
2023-02-11T10:57:00.861Z,9.9
2023-02-11T10:58:02.820Z,9.9
2023-02-11T10:59:04.668Z,9.9
2023-02-11T11:00:06.511Z,9.9
2023-02-11T11:01:24.925Z,9.9
2023-02-11T11:02:26.996Z,9.9
2023-02-11T11:03:28.955Z,9.8
2023-02-11T11:04:31.077Z,9.8
2023-02-11T11:05:33.175Z,9.8
2023-02-11T11:06:35.034Z,9.8
2023-02-11T11:07:36.956Z,9.8
2023-02-11T11:08:38.816Z,9.8
2023-02-11T11:09:40.564Z,9.8
2023-02-11T11:10:42.415Z,9.8
2023-02-11T11:11:44.274Z,9.8
2023-02-11T11:12:46.212Z,9.8
2023-02-11T11:13:48.082Z,9.8
2023-02-11T11:14:49.817Z,9.8
2023-02-11T11:15:51.785Z,9.7
2023-02-11T11:16:53.822Z,9.8
2023-02-11T11:18:21.167Z,9.8
2023-02-11T11:19:25.273Z,9.8
2023-02-11T11:20:27.125Z,9.8
2023-02-11T11:21:29.020Z,9.8
2023-02-11T11:22:30.956Z,9.8
2023-02-11T11:23:32.769Z,9.8
2023-02-11T11:24:34.568Z,9.8
2023-02-11T11:25:36.470Z,9.8
2023-02-11T11:26:38.330Z,9.7
2023-02-11T11:27:40.172Z,9.8
2023-02-11T11:28:41.921Z,9.8
2023-02-11T11:29:43.763Z,9.8
2023-02-11T11:30:45.702Z,9.8
2023-02-11T11:31:47.655Z,9.8
2023-02-11T11:32:49.737Z,9.8
2023-02-11T11:33:51.584Z,9.8
2023-02-11T11:34:53.552Z,9.8
2023-02-11T11:35:55.376Z,9.8
2023-02-11T11:36:57.137Z,9.8
2023-02-11T11:38:02.256Z,9.8
2023-02-11T11:39:04.205Z,9.8
2023-02-11T11:40:06.173Z,9.8
2023-02-11T11:41:08.062Z,9.8
2023-02-11T11:42:09.966Z,9.9
2023-02-11T11:43:11.905Z,9.8
2023-02-11T11:44:13.546Z,9.9
2023-02-11T11:45:15.298Z,9.9
2023-02-11T11:46:17.312Z,9.8
2023-02-11T11:47:19.316Z,9.9
2023-02-11T11:48:21.265Z,9.9
2023-02-11T11:49:23.113Z,9.9
2023-02-11T11:50:24.867Z,9.9
2023-02-11T11:51:26.609Z,9.9
2023-02-11T11:52:28.554Z,9.9
2023-02-11T11:53:30.526Z,9.9
2023-02-11T11:54:32.353Z,9.9
2023-02-11T11:55:34.214Z,9.9
2023-02-11T11:56:36.026Z,9.9
2023-02-11T11:57:37.915Z,9.9
2023-02-11T11:58:39.769Z,9.9
2023-02-11T11:59:41.928Z,10
2023-02-11T12:00:43.774Z,10
2023-02-11T12:01:45.761Z,9.9
2023-02-11T12:02:47.823Z,9.9
2023-02-11T12:03:49.688Z,9.9
2023-02-11T12:04:51.683Z,10
2023-02-11T12:05:53.419Z,10
2023-02-11T12:06:55.372Z,9.9
2023-02-11T12:07:57.211Z,9.9
2023-02-11T12:08:59.201Z,9.9
2023-02-11T12:10:01.030Z,10
2023-02-11T12:11:02.887Z,9.9
2023-02-11T12:12:04.656Z,10
2023-02-11T12:13:06.377Z,9.9
2023-02-11T12:14:08.247Z,9.9
2023-02-11T12:15:10.179Z,10
2023-02-11T12:16:11.961Z,10
2023-02-11T12:17:15.621Z,10.1
2023-02-11T12:18:17.466Z,10
2023-02-11T12:19:19.421Z,10
2023-02-11T12:20:21.372Z,10
2023-02-11T12:21:23.325Z,10
2023-02-11T12:22:25.186Z,10
2023-02-11T12:23:27.039Z,10
2023-02-11T12:24:29.110Z,10
2023-02-11T12:25:31.038Z,10
2023-02-11T12:26:32.890Z,10
2023-02-11T12:27:34.740Z,10
2023-02-11T12:28:36.624Z,10
2023-02-11T12:29:38.736Z,10
2023-02-11T12:30:40.765Z,10
2023-02-11T12:31:42.787Z,10
2023-02-11T12:32:44.606Z,10
2023-02-11T12:33:46.443Z,10
2023-02-11T12:34:48.300Z,10
2023-02-11T12:35:50.127Z,10
2023-02-11T12:36:52.107Z,10
2023-02-11T12:37:53.962Z,10
2023-02-11T12:38:55.808Z,10
2023-02-11T12:39:57.789Z,10
2023-02-11T12:40:59.599Z,10
2023-02-11T12:42:01.458Z,10.1
2023-02-11T12:43:03.310Z,10
2023-02-11T12:44:05.158Z,10
2023-02-11T12:45:07.038Z,10.1
2023-02-11T12:46:09.023Z,10
2023-02-11T12:47:11.022Z,10.1
2023-02-11T12:48:12.827Z,10
2023-02-11T12:49:14.713Z,10.1
2023-02-11T12:50:16.677Z,10.1
2023-02-11T12:51:18.519Z,10
2023-02-11T12:52:20.373Z,10.1
2023-02-11T12:53:22.212Z,10
2023-02-11T12:54:24.059Z,10.1
2023-02-11T12:55:25.948Z,10.1
2023-02-11T12:56:27.769Z,10
2023-02-11T12:57:29.566Z,10
2023-02-11T12:58:45.772Z,10.1
2023-02-11T12:59:47.754Z,10.1
2023-02-11T13:00:50.330Z,10.1
2023-02-11T13:01:53.558Z,10.1
2023-02-11T13:02:55.454Z,10
2023-02-11T13:03:57.274Z,10.1
2023-02-11T13:04:59.055Z,10
2023-02-11T13:06:01.004Z,10.1
2023-02-11T13:07:02.869Z,10.2
2023-02-11T13:08:04.685Z,10
2023-02-11T13:09:06.408Z,10.1
2023-02-11T13:10:08.308Z,10.1
2023-02-11T13:11:14.456Z,10.1
2023-02-11T13:12:16.419Z,10.1
2023-02-11T13:13:18.405Z,10.1
2023-02-11T13:14:20.082Z,10.1
2023-02-11T13:15:21.962Z,10.1
2023-02-11T13:16:24.074Z,10.1
2023-02-11T13:17:25.971Z,10.1
2023-02-11T13:18:27.868Z,10.1
2023-02-11T13:19:32.358Z,10.1
2023-02-11T13:20:34.072Z,10.1
2023-02-11T13:21:36.022Z,10.1
2023-02-11T13:22:37.890Z,10.1
2023-02-11T13:23:39.727Z,10.1
2023-02-11T13:24:41.583Z,10.1
2023-02-11T13:25:43.434Z,10.1
2023-02-11T13:26:45.401Z,10.1
2023-02-11T13:27:47.222Z,10.1
2023-02-11T13:28:49.015Z,10.1
2023-02-11T13:29:50.823Z,10.2
2023-02-11T13:30:53.497Z,10.1
2023-02-11T13:31:57.082Z,10.2
2023-02-11T13:32:59.358Z,10.1
2023-02-11T13:34:01.113Z,10.1
2023-02-11T13:35:02.951Z,10.2
2023-02-11T13:36:05.199Z,10.1
2023-02-11T13:37:07.055Z,10.2
2023-02-11T13:38:08.857Z,10.1
2023-02-11T13:39:10.756Z,10.1
2023-02-11T13:40:12.702Z,10.2
2023-02-11T13:41:14.551Z,10.1
2023-02-11T13:42:16.532Z,10.1
2023-02-11T13:43:18.360Z,10.1
2023-02-11T13:44:20.261Z,10.2
2023-02-11T13:45:22.024Z,10.1
2023-02-11T13:46:24.177Z,10.1
2023-02-11T13:47:26.382Z,10.2
2023-02-11T13:48:28.319Z,10.1
2023-02-11T13:49:32.840Z,10.2
2023-02-11T13:50:34.891Z,10.2
2023-02-11T13:51:36.742Z,10.2
2023-02-11T13:52:38.661Z,10.2
2023-02-11T13:53:40.537Z,10.2
2023-02-11T13:54:42.288Z,10.2
2023-02-11T13:55:44.144Z,10.1
2023-02-11T13:56:45.989Z,10.2
2023-02-11T13:57:47.868Z,10.1
2023-02-11T13:58:49.798Z,10.1
2023-02-11T13:59:51.642Z,10.2
2023-02-11T14:00:54.393Z,10.1
2023-02-11T14:01:57.265Z,10.3
2023-02-11T14:02:59.134Z,10.2
2023-02-11T14:04:01.095Z,10.2
2023-02-11T14:05:02.943Z,10.2
2023-02-11T14:06:04.753Z,10.1
2023-02-11T14:07:06.545Z,10.2
2023-02-11T14:08:08.487Z,10.2
2023-02-11T14:09:10.345Z,10.2